createdAt,value
2023-03-13T00:01:33.216Z,4.65
2023-03-13T00:04:01.634Z,4.97
2023-03-13T00:06:34.505Z,4.63
2023-03-13T00:09:02.769Z,5.30
2023-03-13T00:11:30.425Z,4.57
2023-03-13T00:14:02.313Z,4.00
2023-03-13T00:16:34.729Z,5.28
2023-03-13T00:19:02.301Z,5.53
2023-03-13T00:21:30.094Z,4.93
2023-03-13T00:24:04.038Z,6.47
2023-03-13T00:26:32.480Z,5.63
2023-03-13T00:29:00.756Z,3.33
2023-03-13T00:31:31.431Z,4.22
2023-03-13T00:34:02.575Z,4.68
2023-03-13T00:36:32.824Z,5.70
2023-03-13T00:39:08.227Z,6.43
2023-03-13T00:41:36.178Z,6.07
2023-03-13T00:44:04.445Z,5.35
2023-03-13T00:46:32.071Z,5.32
2023-03-13T00:48:59.717Z,5.55
2023-03-13T00:51:27.662Z,4.50
2023-03-13T00:53:56.594Z,3.42
2023-03-13T00:56:24.868Z,5.07
2023-03-13T00:58:52.968Z,5.50
2023-03-13T01:01:28.782Z,4.45
2023-03-13T01:03:58.368Z,4.93
2023-03-13T01:06:27.698Z,3.05
2023-03-13T01:08:59.346Z,3.47
2023-03-13T01:11:29.500Z,4.00
2023-03-13T01:13:59.371Z,4.47
2023-03-13T01:16:29.302Z,4.55
2023-03-13T01:19:03.393Z,4.63
2023-03-13T01:21:30.989Z,4.43
2023-03-13T01:23:58.706Z,4.63
2023-03-13T01:26:27.516Z,5.22
2023-03-13T01:28:55.855Z,5.30
2023-03-13T01:31:31.961Z,4.65
2023-03-13T01:34:01.543Z,5.40
2023-03-13T01:36:31.451Z,5.57
2023-03-13T01:39:00.247Z,4.97
2023-03-13T01:41:30.093Z,4.72
2023-03-13T01:43:58.728Z,4.97
2023-03-13T01:46:32.236Z,6.10
2023-03-13T01:49:10.196Z,6.82
2023-03-13T01:52:23.972Z,5.85
2023-03-13T01:54:57.401Z,6.30
2023-03-13T01:57:37.481Z,5.72
2023-03-13T02:00:13.623Z,5.20
2023-03-13T02:02:50.010Z,6.82
2023-03-13T02:05:19.368Z,6.55
2023-03-13T02:08:11.865Z,5.50
2023-03-13T02:10:42.808Z,6.22
2023-03-13T02:13:17.473Z,7.38
2023-03-13T02:15:45.363Z,6.80
2023-03-13T02:18:13.006Z,7.30
2023-03-13T02:20:44.801Z,6.20
2023-03-13T02:23:20.512Z,7.38
2023-03-13T02:25:52.173Z,5.63
2023-03-13T02:28:34.622Z,4.53
2023-03-13T02:31:05.197Z,6.35
2023-03-13T02:33:37.944Z,6.03
2023-03-13T02:36:10.570Z,5.90
2023-03-13T02:38:51.038Z,6.80
2023-03-13T02:41:18.861Z,4.30
2023-03-13T02:43:46.864Z,5.10
2023-03-13T02:46:19.545Z,5.20
2023-03-13T02:48:57.599Z,4.32
2023-03-13T02:51:33.148Z,5.78
2023-03-13T02:54:12.573Z,5.43
2023-03-13T02:56:42.007Z,5.45
2023-03-13T02:59:11.091Z,5.32
2023-03-13T03:01:41.966Z,5.32
2023-03-13T03:04:09.771Z,5.75
2023-03-13T03:06:37.492Z,6.25
2023-03-13T03:09:07.408Z,6.47
2023-03-13T03:11:38.742Z,5.95
2023-03-13T03:14:10.331Z,6.05
2023-03-13T03:16:43.005Z,6.85
2023-03-13T03:19:15.511Z,7.68
2023-03-13T03:21:43.474Z,9.45
2023-03-13T03:24:11.105Z,4.57
2023-03-13T03:26:38.641Z,4.70
2023-03-13T03:29:12.349Z,5.68
2023-03-13T03:31:44.571Z,5.28
2023-03-13T03:34:13.228Z,5.75
2023-03-13T03:36:40.877Z,7.13
2023-03-13T03:39:08.433Z,6.55
2023-03-13T03:41:37.575Z,5.88
2023-03-13T03:44:06.278Z,6.05
2023-03-13T03:46:48.978Z,4.80
2023-03-13T03:49:17.140Z,4.20
2023-03-13T03:51:44.818Z,6.03
2023-03-13T03:54:15.306Z,5.13
2023-03-13T03:56:43.026Z,6.97
2023-03-13T03:59:16.656Z,6.85
2023-03-13T04:01:57.392Z,6.53
2023-03-13T04:04:27.380Z,6.80
2023-03-13T04:07:02.443Z,7.72
2023-03-13T04:09:32.313Z,6.75
2023-03-13T04:12:02.077Z,6.85
2023-03-13T04:14:33.732Z,6.68
2023-03-13T04:19:34.375Z,6.60
2023-03-13T04:22:02.555Z,7.10
2023-03-13T04:24:30.568Z,7.00
2023-03-13T04:26:58.640Z,6.10
2023-03-13T04:29:27.031Z,6.78
2023-03-13T04:32:03.573Z,6.88
2023-03-13T04:37:46.194Z,6.28
2023-03-13T04:40:34.030Z,5.07
2023-03-13T04:43:17.629Z,6.32
2023-03-13T04:46:11.356Z,6.28
2023-03-13T04:48:51.896Z,5.40
2023-03-13T04:51:38.076Z,6.25
2023-03-13T04:54:28.918Z,4.38
2023-03-13T04:57:08.742Z,6.30
2023-03-13T05:00:08.267Z,6.22
2023-03-13T05:02:53.358Z,5.43
2023-03-13T05:05:29.289Z,6.45
2023-03-13T05:08:18.063Z,6.88
2023-03-13T05:14:38.727Z,6.07
2023-03-13T05:17:15.655Z,3.20
2023-03-13T05:20:11.460Z,5.68
2023-03-13T05:23:03.352Z,5.65
2023-03-13T05:25:56.745Z,4.45
2023-03-13T05:28:43.150Z,4.95
2023-03-13T05:31:10.925Z,4.07
2023-03-13T05:33:57.105Z,5.20
2023-03-13T05:36:43.596Z,4.90
2023-03-13T05:39:41.166Z,6.03
2023-03-13T05:42:45.171Z,4.75
2023-03-13T05:45:32.673Z,4.60
2023-03-13T05:48:12.146Z,4.22
2023-03-13T05:51:00.703Z,4.10
2023-03-13T05:53:54.186Z,2.65
2023-03-13T05:56:53.185Z,4.05
2023-03-13T05:59:46.989Z,3.10
2023-03-13T06:02:41.024Z,2.65
2023-03-13T06:05:13.955Z,3.10
2023-03-13T06:07:41.667Z,4.05
2023-03-13T06:10:10.655Z,2.40
2023-03-13T06:12:38.877Z,2.28
2023-03-13T06:15:11.695Z,2.45
2023-03-13T06:17:56.148Z,3.05
2023-03-13T06:20:24.060Z,2.40
2023-03-13T06:22:52.831Z,2.53
2023-03-13T06:25:20.682Z,2.63
2023-03-13T06:27:48.278Z,2.10
2023-03-13T06:30:16.271Z,1.92
2023-03-13T06:32:44.402Z,2.45
2023-03-13T06:35:12.399Z,2.05
2023-03-13T06:37:41.279Z,2.33
2023-03-13T06:40:09.852Z,2.25
2023-03-13T06:42:38.599Z,2.05
2023-03-13T06:45:06.696Z,1.48
2023-03-13T06:47:34.540Z,2.38
2023-03-13T06:50:02.110Z,1.90
2023-03-13T06:52:41.397Z,1.80
2023-03-13T06:55:11.272Z,1.48
2023-03-13T06:57:39.968Z,1.52
2023-03-13T07:00:11.513Z,1.40
2023-03-13T07:02:39.142Z,2.10
2023-03-13T07:05:08.692Z,2.53
2023-03-13T07:07:36.838Z,1.25
2023-03-13T07:10:05.369Z,1.77
2023-03-13T07:12:35.817Z,1.38
2023-03-13T07:15:04.690Z,1.33
2023-03-13T07:17:35.301Z,1.65
2023-03-13T07:20:10.746Z,1.77
2023-03-13T07:22:38.433Z,1.75
2023-03-13T07:25:07.319Z,1.15
2023-03-13T07:27:35.818Z,2.05
2023-03-13T07:30:03.598Z,2.00
2023-03-13T07:32:33.434Z,1.80
2023-03-13T07:35:03.434Z,1.33
2023-03-13T07:37:31.254Z,1.05
2023-03-13T07:39:59.093Z,1.25
2023-03-13T07:42:29.329Z,1.67
2023-03-13T07:44:56.924Z,1.40
2023-03-13T07:47:24.465Z,1.00
2023-03-13T07:49:54.023Z,1.13
2023-03-13T07:52:23.191Z,1.60
2023-03-13T07:54:51.265Z,2.42
2023-03-13T07:57:20.840Z,2.15
2023-03-13T07:59:48.473Z,1.02
2023-03-13T08:02:17.207Z,1.58
2023-03-13T08:04:44.956Z,1.42
2023-03-13T08:07:12.816Z,1.70
2023-03-13T08:09:41.567Z,1.65
2023-03-13T08:12:11.256Z,1.40
2023-03-13T08:14:39.113Z,0.68
2023-03-13T08:17:07.448Z,1.63
2023-03-13T08:19:38.652Z,1.10
2023-03-13T08:22:06.202Z,1.40
2023-03-13T08:24:33.967Z,1.05
2023-03-13T08:27:02.750Z,1.20
2023-03-13T08:29:30.515Z,1.60
2023-03-13T08:31:58.201Z,1.35
2023-03-13T08:34:25.794Z,1.05
2023-03-13T08:36:53.439Z,1.70
2023-03-13T08:39:21.856Z,0.85
2023-03-13T08:41:49.546Z,1.08
2023-03-13T08:44:21.433Z,1.02
2023-03-13T08:46:52.569Z,1.35
2023-03-13T08:49:20.237Z,1.10
2023-03-13T08:51:48.838Z,0.77
2023-03-13T08:54:16.527Z,0.90
2023-03-13T08:56:44.753Z,1.80
2023-03-13T08:59:12.861Z,1.02
2023-03-13T09:01:40.373Z,0.82
2023-03-13T09:04:08.124Z,1.27
2023-03-13T09:06:36.653Z,1.65
2023-03-13T09:09:10.722Z,0.63
2023-03-13T09:11:42.268Z,1.30
2023-03-13T09:14:12.001Z,0.70
2023-03-13T09:16:42.486Z,1.00
2023-03-13T09:19:11.114Z,0.70
2023-03-13T09:21:38.666Z,1.35
2023-03-13T09:24:06.661Z,1.00
2023-03-13T09:26:34.243Z,1.30
2023-03-13T09:29:02.201Z,1.70
2023-03-13T09:31:30.920Z,1.00
2023-03-13T09:34:02.175Z,0.70
2023-03-13T09:36:30.174Z,1.40
2023-03-13T09:38:58.719Z,1.20
2023-03-13T09:41:40.778Z,0.90
2023-03-13T09:44:19.649Z,1.15
2023-03-13T09:47:00.103Z,0.85
2023-03-13T09:49:35.056Z,1.20
2023-03-13T09:52:16.952Z,0.90
2023-03-13T09:55:03.605Z,1.50
2023-03-13T09:58:08.731Z,1.98
2023-03-13T10:00:44.694Z,1.20
2023-03-13T10:03:29.652Z,1.08
2023-03-13T10:06:01.729Z,0.90
2023-03-13T10:08:34.101Z,1.25
2023-03-13T10:11:10.385Z,1.00
2023-03-13T10:13:39.330Z,0.70
2023-03-13T10:16:10.172Z,1.00
2023-03-13T10:18:37.867Z,1.15
2023-03-13T10:21:20.134Z,0.77
2023-03-13T10:23:58.121Z,1.10
2023-03-13T10:26:29.053Z,1.20
2023-03-13T10:28:57.367Z,1.10
2023-03-13T10:31:32.466Z,1.00
2023-03-13T10:34:46.618Z,1.20
2023-03-13T10:37:15.561Z,1.20
2023-03-13T10:39:47.389Z,1.35
2023-03-13T10:42:21.892Z,1.00
2023-03-13T10:44:50.450Z,1.20
2023-03-13T10:47:18.031Z,1.17
2023-03-13T10:49:53.120Z,1.25
2023-03-13T10:52:32.531Z,1.45
2023-03-13T10:55:01.615Z,1.25
2023-03-13T10:57:30.952Z,1.40
2023-03-13T10:59:58.989Z,2.38
2023-03-13T11:02:39.184Z,1.23
2023-03-13T11:05:25.555Z,1.20
2023-03-13T11:07:53.635Z,1.58
2023-03-13T11:10:29.994Z,1.27
2023-03-13T11:13:00.116Z,1.30
2023-03-13T11:15:44.595Z,1.23
2023-03-13T11:18:15.702Z,1.52
2023-03-13T11:20:45.249Z,1.30
2023-03-13T11:23:34.099Z,1.50
2023-03-13T11:26:10.842Z,1.42
2023-03-13T11:29:19.520Z,1.00
2023-03-13T11:31:49.393Z,1.77
2023-03-13T11:34:40.270Z,1.80
2023-03-13T11:37:14.968Z,1.52
2023-03-13T11:39:47.533Z,1.40
2023-03-13T11:42:52.573Z,3.15
2023-03-13T11:45:35.565Z,1.25
2023-03-13T11:48:26.901Z,1.73
2023-03-13T11:51:20.580Z,1.50
2023-03-13T11:54:13.823Z,1.88
2023-03-13T11:56:44.063Z,1.45
2023-03-13T11:59:30.001Z,2.35
2023-03-13T12:02:01.175Z,1.50
2023-03-13T12:04:35.622Z,1.90
2023-03-13T12:07:06.909Z,1.90
2023-03-13T12:10:05.938Z,2.03
2023-03-13T12:12:41.385Z,2.42
2023-03-13T12:15:21.904Z,1.38
2023-03-13T12:18:00.870Z,2.08
2023-03-13T12:20:42.338Z,2.00
2023-03-13T12:23:42.320Z,2.70
2023-03-13T12:26:15.312Z,1.80
2023-03-13T12:28:49.435Z,1.83
2023-03-13T12:31:30.360Z,2.90
2023-03-13T12:36:55.709Z,1.83
2023-03-13T12:39:41.977Z,1.90
2023-03-13T12:42:17.330Z,2.05
2023-03-13T12:44:44.901Z,2.53
2023-03-13T12:47:31.320Z,2.05
2023-03-13T12:50:32.525Z,2.88
2023-03-13T12:53:34.798Z,3.78
2023-03-13T12:56:44.017Z,16.33
2023-03-13T12:59:16.416Z,3.40
2023-03-13T13:01:51.784Z,3.20
2023-03-13T13:04:26.000Z,3.25
2023-03-13T13:07:05.026Z,3.10
2023-03-13T13:09:37.231Z,5.82
2023-03-13T13:12:23.306Z,3.17
2023-03-13T13:14:51.133Z,6.25
2023-03-13T13:17:39.067Z,3.47
2023-03-13T13:20:25.508Z,3.17
2023-03-13T13:22:53.802Z,3.55
2023-03-13T13:25:24.597Z,5.13
2023-03-13T13:27:52.462Z,4.07
2023-03-13T13:30:20.100Z,3.40
2023-03-13T13:32:51.784Z,3.70
2023-03-13T13:35:20.754Z,3.90
2023-03-13T13:37:49.640Z,3.83
2023-03-13T13:40:26.250Z,4.30
2023-03-13T13:42:58.203Z,3.92
2023-03-13T13:48:15.554Z,3.85
2023-03-13T13:51:18.708Z,4.18
2023-03-13T13:53:46.226Z,4.18
2023-03-13T13:56:28.911Z,4.10
2023-03-13T13:59:24.889Z,3.90
2023-03-13T14:02:09.846Z,5.00
2023-03-13T14:04:55.806Z,4.88
2023-03-13T14:07:42.017Z,6.05
2023-03-13T14:10:40.072Z,4.85
2023-03-13T14:13:34.019Z,5.15
2023-03-13T14:16:24.383Z,5.45
2023-03-13T14:18:54.448Z,7.00
2023-03-13T14:21:25.284Z,7.72
2023-03-13T14:23:52.996Z,9.43
2023-03-13T14:26:28.464Z,9.13
2023-03-13T14:29:02.982Z,6.30
2023-03-13T14:31:35.978Z,8.45
2023-03-13T14:34:11.545Z,8.73
2023-03-13T14:37:11.168Z,8.05
2023-03-13T14:39:45.619Z,8.90
2023-03-13T14:42:14.089Z,9.10
2023-03-13T14:44:44.119Z,10.23
2023-03-13T14:47:26.884Z,8.00
2023-03-13T14:50:01.929Z,6.55
2023-03-13T14:52:34.193Z,9.43
2023-03-13T14:55:07.997Z,7.78
2023-03-13T14:57:35.834Z,8.93
2023-03-13T15:00:29.615Z,24.23
2023-03-13T15:03:13.105Z,34.20
2023-03-13T15:05:40.788Z,16.23
2023-03-13T15:08:17.482Z,13.98
2023-03-13T15:10:45.446Z,12.13
2023-03-13T15:13:19.762Z,6.80
2023-03-13T15:15:47.619Z,9.77
2023-03-13T15:18:23.523Z,22.45
2023-03-13T15:20:52.690Z,11.30
2023-03-13T15:23:20.711Z,127.30
2023-03-13T15:25:48.537Z,91.80
2023-03-13T15:28:21.443Z,31.05
2023-03-13T15:30:51.381Z,14.77
2023-03-13T15:33:22.823Z,53.05
2023-03-13T15:38:20.633Z,114.40
2023-03-13T15:40:48.306Z,77.07
2023-03-13T15:43:17.760Z,138.50
2023-03-13T15:45:45.688Z,29.98
2023-03-13T15:48:19.736Z,7.68
2023-03-13T15:50:54.871Z,12.60
2023-03-13T15:53:27.905Z,6.80
2023-03-13T15:55:57.940Z,13.00
2023-03-13T15:58:27.552Z,12.23
2023-03-13T16:00:56.251Z,48.30
2023-03-13T16:03:25.970Z,13.82
2023-03-13T16:05:54.077Z,32.88
2023-03-13T16:08:35.235Z,9.48
2023-03-13T16:11:04.849Z,6.82
2023-03-13T16:13:33.386Z,5.78
2023-03-13T16:16:01.596Z,5.63
2023-03-13T16:18:29.352Z,5.53
2023-03-13T16:20:57.265Z,7.88
2023-03-13T16:23:24.857Z,6.78
2023-03-13T16:25:52.372Z,8.13
2023-03-13T16:28:19.921Z,13.15
2023-03-13T16:30:47.888Z,21.55
2023-03-13T16:33:15.484Z,25.08
2023-03-13T16:35:43.769Z,23.45
2023-03-13T16:38:11.278Z,15.75
2023-03-13T16:40:39.626Z,16.58
2023-03-13T16:43:07.679Z,14.27
2023-03-13T16:45:39.630Z,25.65
2023-03-13T16:48:07.380Z,39.58
2023-03-13T16:50:36.739Z,42.03
2023-03-13T16:53:04.942Z,22.23
2023-03-13T16:55:36.788Z,12.40
2023-03-13T16:58:04.784Z,12.30
2023-03-13T17:00:32.605Z,9.35
2023-03-13T17:03:01.665Z,7.80
2023-03-13T17:05:29.685Z,8.02
2023-03-13T17:07:57.252Z,12.88
2023-03-13T17:10:26.945Z,11.63
2023-03-13T17:12:54.575Z,12.10
2023-03-13T17:17:56.176Z,12.75
2023-03-13T17:20:25.744Z,13.68
2023-03-13T17:22:56.363Z,21.33
2023-03-13T17:25:25.080Z,20.25
2023-03-13T17:30:24.975Z,18.23
2023-03-13T17:32:52.718Z,24.48
2023-03-13T17:35:23.237Z,21.30
2023-03-13T17:37:51.036Z,27.58
2023-03-13T17:40:23.581Z,33.60
2023-03-13T17:42:51.281Z,27.42
2023-03-13T17:45:19.029Z,24.92
2023-03-13T17:47:47.226Z,26.17
2023-03-13T17:50:17.670Z,24.67
2023-03-13T17:52:51.200Z,22.98
2023-03-13T17:55:19.342Z,23.40
2023-03-13T17:57:48.470Z,23.20
2023-03-13T18:00:22.231Z,23.65
2023-03-13T18:02:50.384Z,24.58
2023-03-13T18:05:18.288Z,23.73
2023-03-13T18:07:46.323Z,26.10
2023-03-13T18:10:25.144Z,25.58
2023-03-13T18:12:53.240Z,27.90
2023-03-13T18:15:21.643Z,25.52
2023-03-13T18:17:52.012Z,27.08
2023-03-13T18:20:25.516Z,25.08
2023-03-13T18:22:54.245Z,28.63
2023-03-13T18:25:23.385Z,34.47
2023-03-13T18:27:50.974Z,30.38
2023-03-13T18:30:23.839Z,33.25
2023-03-13T18:32:51.680Z,35.22
2023-03-13T18:35:19.228Z,44.65
2023-03-13T18:37:49.686Z,43.55
2023-03-13T18:40:36.346Z,42.25
2023-03-13T18:43:06.639Z,31.83
2023-03-13T18:45:36.522Z,38.05
2023-03-13T18:48:04.180Z,36.17
2023-03-13T18:50:32.308Z,27.55
2023-03-13T18:53:00.082Z,28.77
2023-03-13T18:55:28.761Z,30.13
2023-03-13T18:57:56.538Z,24.33
2023-03-13T19:00:25.892Z,26.58
2023-03-13T19:02:53.606Z,29.08
2023-03-13T19:05:21.188Z,30.95
2023-03-13T19:07:49.836Z,30.70
2023-03-13T19:10:24.359Z,32.25
2023-03-13T19:12:58.313Z,36.97
2023-03-13T19:15:27.626Z,35.00
2023-03-13T19:17:56.359Z,33.50
2023-03-13T19:20:25.150Z,32.60
2023-03-13T19:22:54.506Z,32.97
2023-03-13T19:25:22.813Z,35.35
2023-03-13T19:27:51.683Z,36.67
2023-03-13T19:30:23.766Z,38.00
2023-03-13T19:32:57.827Z,33.75
2023-03-13T19:35:25.551Z,32.30
2023-03-13T19:37:53.190Z,32.05
2023-03-13T19:40:23.013Z,32.22
2023-03-13T19:42:50.529Z,29.00
2023-03-13T19:45:20.560Z,27.38
2023-03-13T19:47:48.296Z,25.90
2023-03-13T19:50:20.622Z,26.43
2023-03-13T19:52:48.704Z,22.92
2023-03-13T19:55:16.512Z,24.70
2023-03-13T19:57:44.630Z,20.65
2023-03-13T20:00:21.714Z,28.77
2023-03-13T20:02:58.452Z,25.27
2023-03-13T20:05:28.886Z,31.80
2023-03-13T20:07:58.862Z,30.27
2023-03-13T20:10:27.776Z,28.33
2023-03-13T20:12:58.134Z,20.48
2023-03-13T20:15:25.732Z,25.70
2023-03-13T20:17:53.332Z,19.67
2023-03-13T20:20:21.073Z,15.77
2023-03-13T20:22:50.538Z,16.83
2023-03-13T20:25:18.548Z,14.98
2023-03-13T20:27:49.818Z,12.68
2023-03-13T20:30:17.667Z,15.48
2023-03-13T20:32:57.006Z,15.05
2023-03-13T20:35:27.749Z,14.90
2023-03-13T20:37:57.546Z,14.43
2023-03-13T20:40:25.902Z,10.40
2023-03-13T20:42:53.445Z,12.43
2023-03-13T20:45:21.286Z,11.27
2023-03-13T20:47:49.688Z,10.30
2023-03-13T20:50:19.557Z,10.18
2023-03-13T20:52:48.902Z,10.18
2023-03-13T20:55:16.851Z,8.85
2023-03-13T20:57:46.362Z,9.20
2023-03-13T21:00:14.519Z,9.05
2023-03-13T21:02:42.076Z,8.43
2023-03-13T21:05:10.216Z,7.75
2023-03-13T21:07:37.900Z,8.13
2023-03-13T21:10:14.447Z,8.35
2023-03-13T21:12:42.218Z,8.55
2023-03-13T21:15:10.304Z,7.90
2023-03-13T21:17:38.467Z,7.50
2023-03-13T21:20:13.832Z,6.90
2023-03-13T21:22:42.166Z,7.97
2023-03-13T21:25:10.544Z,7.25
2023-03-13T21:27:39.177Z,7.78
2023-03-13T21:30:10.595Z,7.60
2023-03-13T21:32:39.424Z,7.70
2023-03-13T21:35:07.353Z,7.63
2023-03-13T21:37:35.645Z,8.82
2023-03-13T21:40:04.622Z,7.63
2023-03-13T21:42:34.374Z,8.38
2023-03-13T21:45:02.809Z,7.85
2023-03-13T21:47:37.392Z,7.00
2023-03-13T21:50:06.502Z,7.85
2023-03-13T21:52:40.774Z,6.57
2023-03-13T21:55:11.441Z,7.43
2023-03-13T21:57:39.954Z,7.15
2023-03-13T22:00:08.912Z,9.95
2023-03-13T22:02:37.609Z,8.70
2023-03-13T22:05:05.587Z,9.30
2023-03-13T22:07:35.357Z,9.90
2023-03-13T22:10:02.847Z,15.38
2023-03-13T22:12:37.477Z,22.30
2023-03-13T22:15:06.752Z,32.15
2023-03-13T22:17:34.850Z,47.83
2023-03-13T22:20:02.444Z,54.67
2023-03-13T22:22:31.317Z,58.72
2023-03-13T22:25:04.626Z,62.67
2023-03-13T22:27:32.760Z,67.63
2023-03-13T22:30:00.360Z,52.38
2023-03-13T22:32:28.058Z,50.22
2023-03-13T22:34:55.932Z,51.95
2023-03-13T22:37:28.882Z,58.50
2023-03-13T22:39:57.634Z,64.32
2023-03-13T22:42:26.170Z,61.72
2023-03-13T22:44:55.492Z,77.82
2023-03-13T22:47:24.787Z,77.35
2023-03-13T22:49:53.771Z,77.47
2023-03-13T22:52:23.434Z,75.63
2023-03-13T22:54:51.099Z,73.90
2023-03-13T22:57:18.607Z,71.38
2023-03-13T22:59:46.241Z,74.68
2023-03-13T23:02:13.745Z,77.70
2023-03-13T23:04:41.713Z,64.72
2023-03-13T23:07:13.365Z,54.05
2023-03-13T23:09:41.247Z,39.78
2023-03-13T23:12:09.863Z,37.65
2023-03-13T23:14:38.085Z,32.90
2023-03-13T23:17:07.000Z,22.98
2023-03-13T23:19:36.109Z,22.13
2023-03-13T23:22:04.781Z,22.05
2023-03-13T23:24:33.665Z,15.95
2023-03-13T23:27:07.930Z,16.85
2023-03-13T23:29:37.896Z,15.57
2023-03-13T23:32:07.068Z,22.85
2023-03-13T23:34:37.160Z,45.08
2023-03-13T23:37:05.374Z,63.58
2023-03-13T23:39:40.054Z,80.97
2023-03-13T23:42:08.564Z,98.35
2023-03-13T23:44:37.074Z,102.15
2023-03-13T23:47:06.015Z,110.53
2023-03-13T23:49:34.315Z,107.65
2023-03-13T23:52:04.027Z,88.88
2023-03-13T23:54:32.929Z,67.88
2023-03-13T23:57:06.488Z,49.10
2023-03-13T23:59:34.910Z,29.17
